Home   Weather   Spain   Cadiz   Past weeks
Flag for Spain

Past Weather in Cadiz, Cádiz, Spain — Yesterday and Last 2 Weeks

Currently: 52 °F. Light rain. Mostly cloudy. (Weather station: Rota Airport, Spain). See more current weather

Past Weather in Cadiz — Graph

°F

Cadiz Temperature Yesterday

Maximum temperature yesterday: 63 °F (at 1:00 pm)
Minimum temperature yesterday: 43 °F (at 7:30 am)
Average temperature yesterday: 53 °F

High & Low Weather Summary for the Past Weeks

 TemperatureHumidityPressure
High73 °F (Nov 26, 4:00 pm)100% (Nov 16, 6:00 am)30.36 "Hg (Nov 16, 6:00 am)
Low43 °F (Nov 30, 7:30 am)35% (Nov 29, 4:00 pm)29.92 "Hg (Dec 1, 2:00 am)
Average60 °F77%30.17 "Hg
* Reported Nov 16 2:00 am — Dec 1 2:00 am, Cadiz. Weather by CustomWeather, © 2022

Note: Actual official high and low records may vary slightly from our data, if they occured in-between our weather recording intervals... More about our weather records

Cadiz Weather History for the Previous 24 Hours

Scroll right to see more
 ConditionsComfort  
Time TempWeatherWind HumidityBarometerVisibility
2:00 am
Thu, Dec 1
52 °FLight rain. Overcast.7 mph94%29.92 "Hg5 mi
12:30 am52 °FLight rain. Passing clouds.5 mph94%29.95 "Hg6 mi
12:00 am54 °FRain. Passing clouds.5 mph82%29.95 "Hg4 mi
11:40 pm
Wed, Nov 30
54 °FRain. Passing clouds.5 mph82%29.95 "Hg4 mi
11:00 pm54 °FPassing clouds.5 mph77%29.95 "HgN/A
10:44 pm54 °FLight rain. Passing clouds.5 mph77%29.95 "HgN/A
10:00 pm55 °FLight rain. Passing clouds.5 mph67%29.95 "HgN/A
9:30 pm55 °FPassing clouds.6 mph67%29.98 "HgN/A
9:00 pm55 °FPassing clouds.1 mph72%29.98 "HgN/A
8:30 pm55 °FClear.1 mph72%29.95 "Hg10 mi
8:00 pm55 °FClear.2 mph72%29.98 "Hg10 mi
7:30 pm54 °FClear.No wind72%29.98 "Hg10 mi
7:00 pm55 °FClear.No wind67%29.98 "Hg10 mi
6:30 pm55 °FClear.2 mph67%29.98 "Hg10 mi
6:00 pm57 °FSunny.6 mph63%29.98 "Hg10 mi
5:30 pm59 °FSunny.9 mph59%29.98 "Hg10 mi
5:00 pm59 °FPassing clouds.9 mph55%29.98 "HgN/A
4:30 pm59 °FPassing clouds.7 mph55%29.98 "HgN/A
4:00 pm61 °FSunny.8 mph55%29.98 "Hg10 mi
3:30 pm59 °FSunny.7 mph59%29.98 "Hg10 mi
3:00 pm61 °FSunny.8 mph55%29.98 "Hg10 mi
2:30 pm61 °FPassing clouds.7 mph59%30.01 "HgN/A
2:00 pm61 °FPassing clouds.6 mph59%30.01 "HgN/A
1:30 pm61 °FSunny.3 mph63%30.01 "Hg10 mi
1:00 pm63 °FSunny.2 mph59%30.04 "Hg10 mi
12:30 pm61 °FSunny.2 mph59%30.04 "Hg10 mi
12:00 pm59 °FPassing clouds.3 mph55%30.04 "HgN/A
11:30 am57 °FSunny.5 mph55%30.04 "Hg10 mi
11:00 am55 °FPassing clouds.5 mph55%30.04 "HgN/A
10:30 am52 °FSunny.6 mph62%30.04 "Hg10 mi
10:00 am50 °FSunny.6 mph62%30.04 "Hg10 mi
9:00 am45 °FSunny.6 mph71%30.04 "Hg10 mi
8:30 am43 °FPassing clouds.7 mph76%30.04 "HgN/A
8:00 am43 °FClear.6 mph76%30.04 "Hg10 mi
7:30 am43 °FPassing clouds.6 mph76%30.04 "HgN/A
7:00 am45 °FClear.8 mph76%30.01 "Hg10 mi
6:30 am48 °FClear.9 mph66%30.01 "Hg10 mi
6:00 am46 °FPassing clouds.9 mph76%30.04 "HgN/A
5:30 am46 °FPassing clouds.9 mph76%30.04 "HgN/A
5:00 am46 °FPassing clouds.7 mph71%30.04 "HgN/A
4:30 am46 °FPassing clouds.6 mph71%30.04 "HgN/A
4:00 am45 °FClear.6 mph81%30.04 "Hg10 mi
3:30 am46 °FPassing clouds.6 mph76%30.04 "HgN/A
3:00 am46 °FClear.7 mph76%30.04 "Hg10 mi
Weather by CustomWeather, © 2022

See weather overview